Time;durP1;ratioP1;P1;durP2;ratioP2;P2;SDS_P1;SDS_P2;PMS_P1;PMS_P2;Temp;Humidity;BMP_temperature;BMP_pressure;BME280_temperature;BME280_humidity;BME280_pressure;Samples;Min_cycle;Max_cycle;Signal;HPM_P1;HPM_P2
2021/09/13 00:00:54;;;;;;;3.70;3.50;;;;;;;19.49;81.90;96502.13;4975708;28;20162;-59
2021/09/13 00:03:20;;;;;;;3.70;3.40;;;;;;;19.42;82.44;96502.41;4975326;28;20264;-64
2021/09/13 00:05:46;;;;;;;3.80;3.50;;;;;;;19.28;83.09;96498.75;4975611;28;20193;-64
2021/09/13 00:08:12;;;;;;;4.20;3.80;;;;;;;19.33;83.07;96497.97;4975584;28;20625;-64
2021/09/13 00:10:37;;;;;;;3.93;3.53;;;;;;;19.35;83.20;96490.47;4975298;28;20552;-65
2021/09/13 00:13:03;;;;;;;5.07;3.53;;;;;;;19.37;83.18;96496.31;4974893;28;20253;-64
2021/09/13 00:15:29;;;;;;;3.93;3.57;;;;;;;19.42;83.26;96493.66;4975327;28;20190;-65
2021/09/13 00:17:54;;;;;;;3.77;3.47;;;;;;;19.46;83.14;96487.47;4975344;28;20634;-60
2021/09/13 00:20:19;;;;;;;4.30;3.60;;;;;;;19.44;82.77;96491.47;4983802;28;20201;-65
2021/09/13 00:22:45;;;;;;;3.47;3.27;;;;;;;19.49;82.61;96492.22;4994470;28;20319;-64
2021/09/13 00:25:10;;;;;;;3.53;3.33;;;;;;;19.49;82.19;96470.91;4976020;28;20210;-60
2021/09/13 00:27:36;;;;;;;6.13;3.53;;;;;;;19.52;82.08;96479.41;4975441;28;20181;-59
2021/09/13 00:30:02;;;;;;;4.10;3.80;;;;;;;19.52;81.70;96476.75;4975112;28;20552;-64
2021/09/13 00:32:28;;;;;;;3.90;3.60;;;;;;;19.46;82.08;96478.66;4975027;28;20248;-60
2021/09/13 00:34:54;;;;;;;4.13;3.83;;;;;;;19.40;82.22;96475.25;4974643;28;20441;-64
2021/09/13 00:37:19;;;;;;;3.53;3.30;;;;;;;19.39;82.35;96479.00;4975108;28;20190;-60
2021/09/13 00:39:45;;;;;;;4.00;3.80;;;;;;;19.37;82.57;96481.13;4974937;28;20205;-60
2021/09/13 00:42:10;;;;;;;3.97;3.67;;;;;;;19.36;82.50;96482.22;4975104;28;20174;-64
2021/09/13 00:44:35;;;;;;;3.60;3.30;;;;;;;19.40;82.54;96482.47;4974853;28;20265;-65
2021/09/13 00:47:01;;;;;;;4.03;3.67;;;;;;;19.38;82.31;96480.06;4975188;28;20197;-64
2021/09/13 00:49:26;;;;;;;3.90;3.53;;;;;;;19.37;82.68;96483.00;4974885;28;20544;-59
2021/09/13 00:51:52;;;;;;;4.00;3.80;;;;;;;19.37;82.90;96480.34;4974876;28;20209;-64
2021/09/13 00:54:18;;;;;;;3.57;3.37;;;;;;;19.32;83.37;96481.19;4974147;28;20724;-60
2021/09/13 00:56:44;;;;;;;4.13;3.50;;;;;;;19.25;84.04;96478.00;4974689;28;20178;-65
2021/09/13 00:59:11;;;;;;;4.20;3.90;;;;;;;19.27;83.97;96475.06;4974718;28;20623;-65
2021/09/13 01:01:36;;;;;;;4.20;3.90;;;;;;;19.37;83.47;96480.34;4974813;28;20193;-64
2021/09/13 01:04:01;;;;;;;3.60;3.40;;;;;;;19.37;83.49;96475.81;4974585;28;20770;-60
2021/09/13 01:06:27;;;;;;;3.90;3.60;;;;;;;19.40;83.61;96467.25;4973064;28;20221;-65
2021/09/13 01:08:53;;;;;;;3.77;3.47;;;;;;;19.38;83.41;96472.09;4974349;28;20174;-60
2021/09/13 01:11:19;;;;;;;4.40;4.00;;;;;;;19.43;83.41;96469.38;4974226;28;20197;-60
2021/09/13 01:13:44;;;;;;;4.07;3.77;;;;;;;19.42;83.76;96467.00;4974221;28;20527;-59
2021/09/13 01:16:10;;;;;;;3.60;3.40;;;;;;;19.40;83.55;96472.56;4974461;28;20275;-60
2021/09/13 01:18:35;;;;;;;8.30;4.20;;;;;;;19.39;83.92;96475.53;4974775;28;20516;-60
2021/09/13 01:21:02;;;;;;;3.47;3.17;;;;;;;19.38;84.21;96471.28;4988514;28;20178;-59
2021/09/13 01:23:30;;;;;;;8.60;4.10;;;;;;;19.36;84.28;96468.09;4993557;28;20173;-60
2021/09/13 01:25:55;;;;;;;4.20;3.80;;;;;;;19.42;83.72;96461.66;4990888;28;20449;-59
2021/09/13 01:28:21;;;;;;;5.03;4.00;;;;;;;19.44;83.27;96467.47;4974483;28;20935;-65
2021/09/13 01:30:46;;;;;;;3.70;3.40;;;;;;;19.46;83.16;96468.00;4974575;28;20194;-60
2021/09/13 01:33:12;;;;;;;4.20;3.90;;;;;;;19.39;83.33;96463.00;4974032;28;20257;-65
2021/09/13 01:35:38;;;;;;;4.07;3.77;;;;;;;19.35;83.52;96459.28;4974648;28;20196;-65
2021/09/13 01:38:03;;;;;;;4.07;3.77;;;;;;;19.37;83.36;96456.34;4974231;28;20186;-65
2021/09/13 01:40:29;;;;;;;6.33;3.50;;;;;;;19.40;82.97;96458.47;4973843;28;20225;-65
2021/09/13 01:43:02;;;;;;;4.43;3.47;;;;;;;19.36;83.16;96454.75;4974009;28;20170;-65
2021/09/13 01:45:27;;;;;;;3.47;3.27;;;;;;;19.35;83.21;96467.28;4974159;28;20254;-64
2021/09/13 01:47:53;;;;;;;4.80;4.00;;;;;;;19.32;83.26;96461.72;4974275;28;20409;-60
2021/09/13 01:50:19;;;;;;;3.40;3.20;;;;;;;19.27;83.58;96456.41;4974139;28;20208;-64
2021/09/13 01:52:45;;;;;;;3.80;3.50;;;;;;;19.27;83.49;96459.06;4974005;28;20497;-64
2021/09/13 01:55:10;;;;;;;3.90;3.63;;;;;;;19.26;83.87;96454.78;4974016;28;20212;-65
2021/09/13 01:57:36;;;;;;;3.53;3.33;;;;;;;19.29;83.64;96449.72;4974180;28;20174;-65
2021/09/13 02:00:03;;;;;;;4.63;4.23;;;;;;;19.30;83.29;96448.66;4974317;28;20198;-60
2021/09/13 02:02:28;;;;;;;4.17;3.87;;;;;;;19.26;84.00;96450.28;4973839;28;20177;-59
2021/09/13 02:04:53;;;;;;;3.97;3.67;;;;;;;19.25;83.88;96440.69;4973715;28;20433;-64
2021/09/13 02:07:19;;;;;;;4.10;3.73;;;;;;;19.32;83.44;96445.72;4974947;28;20228;-65
2021/09/13 02:09:44;;;;;;;4.50;4.10;;;;;;;19.31;83.05;96436.94;4976524;28;20208;-59
2021/09/13 02:12:10;;;;;;;4.43;4.13;;;;;;;19.29;83.00;96439.06;4976462;28;20174;-59
2021/09/13 02:14:35;;;;;;;5.00;4.57;;;;;;;19.30;82.54;96439.84;4977189;28;20263;-61
2021/09/13 02:17:01;;;;;;;4.57;4.17;;;;;;;19.26;82.53;96438.81;4977373;28;20706;-59
2021/09/13 02:19:26;;;;;;;4.30;3.90;;;;;;;19.18;82.73;96437.56;4979132;28;20170;-60
2021/09/13 02:21:51;;;;;;;4.57;4.17;;;;;;;19.17;83.07;96443.94;4993325;28;20654;-64
2021/09/13 02:24:17;;;;;;;4.47;4.17;;;;;;;19.14;83.09;96447.16;4975962;28;20174;-60
2021/09/13 02:26:42;;;;;;;4.57;4.00;;;;;;;19.12;83.25;96443.97;4977460;28;20170;-60
2021/09/13 02:29:08;;;;;;;4.33;3.83;;;;;;;19.16;82.62;96452.22;4977535;28;20166;-64
2021/09/13 02:31:34;;;;;;;4.53;4.13;;;;;;;19.15;82.56;96446.09;4977303;28;20197;-59
2021/09/13 02:33:59;;;;;;;5.43;5.03;;;;;;;19.12;82.54;96449.31;4977103;28;20835;-64
2021/09/13 02:36:24;;;;;;;4.40;4.10;;;;;;;19.10;82.90;96448.78;4976894;28;20225;-64
2021/09/13 02:38:50;;;;;;;5.37;4.30;;;;;;;19.09;83.24;96449.06;4977568;28;20174;-59
2021/09/13 02:41:15;;;;;;;5.03;4.27;;;;;;;19.07;83.43;96446.69;4977296;28;20645;-60
2021/09/13 02:43:40;;;;;;;5.37;4.67;;;;;;;19.02;83.65;96445.94;4976779;28;20738;-64
2021/09/13 02:46:06;;;;;;;4.37;4.07;;;;;;;19.03;83.76;96439.50;4975790;28;20273;-64
2021/09/13 02:48:31;;;;;;;4.83;4.43;;;;;;;19.07;83.67;96432.56;4977265;28;20167;-59
2021/09/13 02:50:57;;;;;;;4.57;4.27;;;;;;;19.06;83.41;96433.66;4976748;28;20210;-58
2021/09/13 02:53:22;;;;;;;4.50;4.20;;;;;;;19.09;83.10;96433.09;4976674;28;20174;-59
2021/09/13 02:55:47;;;;;;;7.07;4.60;;;;;;;19.04;83.47;96423.25;4975681;28;20226;-59
2021/09/13 02:58:13;;;;;;;7.40;4.50;;;;;;;19.01;83.59;96431.00;4976689;28;20173;-60
2021/09/13 03:00:38;;;;;;;7.37;4.50;;;;;;;18.95;83.71;96429.47;4976821;28;20189;-59
2021/09/13 03:03:04;;;;;;;5.30;4.90;;;;;;;18.96;83.97;96428.38;4975253;28;20174;-60
2021/09/13 03:05:29;;;;;;;5.83;5.33;;;;;;;18.93;84.48;96434.25;4976680;28;20200;-64
2021/09/13 03:07:55;;;;;;;5.90;5.30;;;;;;;18.94;84.38;96435.84;4976709;28;20166;-65
2021/09/13 03:10:20;;;;;;;5.60;5.10;;;;;;;18.95;84.52;96432.91;4976803;28;20273;-60
2021/09/13 03:12:46;;;;;;;4.67;4.27;;;;;;;18.92;84.43;96436.13;4976068;28;20641;-60
2021/09/13 03:15:11;;;;;;;6.67;5.20;;;;;;;18.91;84.97;96434.53;4976345;28;20194;-60
2021/09/13 03:17:39;;;;;;;6.23;5.37;;;;;;;18.94;84.93;96435.84;4976513;28;20174;-65
2021/09/13 03:20:05;;;;;;;6.00;5.50;;;;;;;18.90;84.76;96438.25;4981684;28;20169;-64
2021/09/13 03:22:31;;;;;;;6.10;5.60;;;;;;;18.90;84.62;96438.25;4985084;28;20580;-64
2021/09/13 03:24:56;;;;;;;6.17;5.67;;;;;;;18.91;84.23;96434.53;4976017;28;20516;-59
2021/09/13 03:27:21;;;;;;;6.70;6.13;;;;;;;18.90;84.42;96440.13;4976383;28;20170;-60
2021/09/13 03:29:47;;;;;;;5.00;4.60;;;;;;;18.82;84.09;96438.88;4976427;28;20171;-64
2021/09/13 03:32:12;;;;;;;5.17;4.60;;;;;;;18.67;84.57;96451.44;4976223;28;20198;-60
2021/09/13 03:34:38;;;;;;;5.60;3.97;;;;;;;18.45;85.08;96451.81;4975912;28;20193;-64
2021/09/13 03:37:03;;;;;;;5.13;3.70;;;;;;;18.43;84.73;96457.41;4975676;28;20653;-64
2021/09/13 03:39:29;;;;;;;5.77;4.00;;;;;;;18.48;83.98;96447.81;4976520;28;20248;-59
2021/09/13 03:41:54;;;;;;;4.60;4.20;;;;;;;18.51;84.13;96452.59;4976358;28;20166;-64
2021/09/13 03:44:20;;;;;;;4.30;4.00;;;;;;;18.45;84.29;96443.81;4975497;28;20269;-64
2021/09/13 03:46:45;;;;;;;4.40;4.03;;;;;;;18.55;83.90;96440.34;4975991;28;20166;-64
2021/09/13 03:49:10;;;;;;;3.83;3.53;;;;;;;18.54;83.53;96433.41;4976041;28;20174;-59
2021/09/13 03:51:36;;;;;;;4.47;4.13;;;;;;;18.55;83.04;96437.66;4974264;28;20194;-64
2021/09/13 03:54:01;;;;;;;3.97;3.67;;;;;;;18.48;83.61;96432.63;4975558;28;20253;-65
2021/09/13 03:56:27;;;;;;;4.70;4.30;;;;;;;18.51;83.56;96428.63;4975910;28;20194;-59
2021/09/13 03:58:56;;;;;;;4.80;4.40;;;;;;;18.55;83.43;96422.50;4974618;28;20170;-59
2021/09/13 04:01:23;;;;;;;4.27;3.90;;;;;;;18.54;83.37;96418.25;4976083;28;20402;-65
2021/09/13 04:03:50;;;;;;;4.03;3.60;;;;;;;18.54;83.64;96414.78;4975426;28;20405;-59
2021/09/13 04:06:25;;;;;;;4.50;4.20;;;;;;;18.57;83.50;96422.22;4975250;28;20532;-59
2021/09/13 04:09:43;;;;;;;5.00;4.60;;;;;;;18.56;84.14;96412.63;4975754;28;20409;-65
2021/09/13 04:11:54;;;;;;;4.90;4.50;;;;;;;18.55;84.04;96408.41;4975337;28;20839;-59
2021/09/13 04:14:24;;;;;;;5.53;4.40;;;;;;;18.50;84.21;96409.19;4975056;28;20450;-64
2021/09/13 04:16:50;;;;;;;5.63;5.13;;;;;;;18.48;84.33;96412.13;4975418;28;20217;-60
2021/09/13 04:19:16;;;;;;;5.33;4.90;;;;;;;18.41;84.72;96411.66;4975152;28;20437;-64
2021/09/13 04:21:41;;;;;;;4.87;4.47;;;;;;;18.44;84.52;96411.09;4994594;28;20400;-60
2021/09/13 04:24:07;;;;;;;5.67;4.83;;;;;;;18.37;85.08;96412.44;4994559;28;20247;-64
2021/09/13 04:26:33;;;;;;;5.90;4.97;;;;;;;18.31;85.31;96410.88;4994635;28;20190;-65
2021/09/13 04:28:58;;;;;;;4.60;4.30;;;;;;;18.38;85.30;96411.38;4994747;28;20409;-59
2021/09/13 04:31:24;;;;;;;5.50;5.00;;;;;;;18.44;84.94;96405.75;4994173;28;20200;-59
2021/09/13 04:33:51;;;;;;;5.10;4.70;;;;;;;18.40;85.16;96403.91;4992904;28;20219;-60
2021/09/13 04:36:16;;;;;;;4.87;4.57;;;;;;;18.40;84.77;96410.03;4974593;28;20660;-64
2021/09/13 04:38:42;;;;;;;4.97;4.37;;;;;;;18.39;84.64;96416.41;4975107;28;20409;-59
2021/09/13 04:41:07;;;;;;;5.20;4.70;;;;;;;18.41;84.29;96411.66;4975583;28;20166;-59
2021/09/13 04:43:32;;;;;;;5.70;5.20;;;;;;;18.26;84.95;96421.53;4974416;28;20178;-64
2021/09/13 04:45:58;;;;;;;5.30;4.40;;;;;;;18.19;85.43;96421.81;4974911;28;20194;-65
2021/09/13 04:48:24;;;;;;;4.90;4.60;;;;;;;18.27;85.38;96418.59;4975216;28;20189;-64
2021/09/13 04:50:49;;;;;;;5.00;4.60;;;;;;;18.35;83.93;96418.03;4974832;28;20190;-64
2021/09/13 04:53:15;;;;;;;4.33;4.03;;;;;;;18.36;83.82;96426.81;4974531;28;20619;-59
2021/09/13 04:55:40;;;;;;;4.20;3.80;;;;;;;18.25;84.43;96417.28;4974975;28;20230;-64
2021/09/13 04:58:05;;;;;;;4.57;3.53;;;;;;;18.12;84.85;96416.00;4974668;28;20523;-64
2021/09/13 05:00:31;;;;;;;5.57;3.70;;;;;;;18.16;84.62;96417.03;4974733;28;20196;-59
2021/09/13 05:02:56;;;;;;;4.00;3.60;;;;;;;18.23;84.71;96408.75;4974374;28;20641;-64
2021/09/13 05:05:21;;;;;;;4.63;4.23;;;;;;;18.28;84.11;96422.06;4974556;28;20715;-60
2021/09/13 05:07:47;;;;;;;5.23;4.40;;;;;;;18.27;84.21;96423.13;4974914;28;20536;-60
2021/09/13 05:10:13;;;;;;;4.27;3.97;;;;;;;18.23;84.20;96417.53;4974528;28;20209;-65
2021/09/13 05:12:38;;;;;;;6.30;3.50;;;;;;;18.22;84.30;96410.66;4973999;28;20174;-64
2021/09/13 05:15:04;;;;;;;3.90;3.60;;;;;;;18.24;84.06;96416.47;4974496;28;20194;-59
2021/09/13 05:17:30;;;;;;;5.13;3.50;;;;;;;18.24;83.88;96418.34;4974647;28;20163;-65
2021/09/13 05:19:56;;;;;;;4.63;3.80;;;;;;;18.25;83.84;96423.41;4978513;28;20439;-63
2021/09/13 05:22:22;;;;;;;4.13;3.83;;;;;;;18.24;83.81;96435.09;4994137;28;20663;-64
2021/09/13 05:24:48;;;;;;;4.00;3.70;;;;;;;18.26;83.55;96434.84;4993514;28;20857;-59
2021/09/13 05:27:13;;;;;;;4.50;3.93;;;;;;;18.19;84.01;96427.13;4976192;28;20414;-59
2021/09/13 05:29:38;;;;;;;4.70;4.30;;;;;;;18.18;84.01;96432.72;4974533;28;20174;-64
2021/09/13 05:32:04;;;;;;;4.43;4.03;;;;;;;18.24;83.98;96434.31;4974534;28;20202;-59
2021/09/13 05:34:30;;;;;;;4.37;4.07;;;;;;;18.21;84.39;96425.00;4973832;28;20541;-64
2021/09/13 05:36:55;;;;;;;5.27;4.80;;;;;;;18.19;84.44;96434.34;4974258;28;20182;-60
2021/09/13 05:39:21;;;;;;;6.20;4.50;;;;;;;18.23;84.61;96438.03;4974558;28;20182;-64
2021/09/13 05:41:46;;;;;;;5.80;4.60;;;;;;;18.28;84.21;96436.16;4974166;28;20169;-59
2021/09/13 05:44:12;;;;;;;5.27;4.80;;;;;;;18.20;85.02;96431.41;4977933;28;20709;-65
2021/09/13 05:46:37;;;;;;;6.20;5.00;;;;;;;18.21;85.26;96432.97;4978117;28;20190;-65
2021/09/13 05:49:05;;;;;;;6.07;5.57;;;;;;;18.21;85.79;96432.19;4978423;28;20167;-60
2021/09/13 05:51:31;;;;;;;5.00;4.50;;;;;;;18.26;85.83;96440.16;4978086;28;20190;-59
2021/09/13 05:53:56;;;;;;;5.50;5.00;;;;;;;18.29;86.27;96443.06;4977758;28;20421;-64
2021/09/13 05:56:21;;;;;;;4.90;4.50;;;;;;;18.34;86.70;96447.56;4977580;28;20206;-64
2021/09/13 05:58:47;;;;;;;5.33;4.83;;;;;;;18.43;86.11;96444.09;4977977;28;20213;-59
2021/09/13 06:01:12;;;;;;;5.17;4.67;;;;;;;18.48;85.81;96444.06;4977889;28;20174;-59
2021/09/13 06:03:37;;;;;;;6.00;4.90;;;;;;;18.46;85.96;96446.22;4977503;28;20701;-60
2021/09/13 06:06:03;;;;;;;5.50;5.00;;;;;;;18.48;86.02;96444.06;4977883;28;20285;-64
2021/09/13 06:08:28;;;;;;;5.13;4.73;;;;;;;18.50;86.01;96445.69;4977760;28;20249;-60
2021/09/13 06:10:54;;;;;;;5.60;5.00;;;;;;;18.52;86.62;96448.84;4977450;28;20229;-59
2021/09/13 06:13:19;;;;;;;5.07;4.57;;;;;;;18.56;86.23;96434.72;4977414;28;20557;-60
2021/09/13 06:15:44;;;;;;;5.50;5.10;;;;;;;18.58;86.14;96435.25;4977582;28;20240;-59
2021/09/13 06:18:11;;;;;;;5.60;5.20;;;;;;;18.62;86.11;96443.50;4977811;28;20633;-60
2021/09/13 06:20:37;;;;;;;7.40;5.53;;;;;;;18.62;85.90;96456.81;4988273;28;20173;-59
2021/09/13 06:23:02;;;;;;;6.20;5.40;;;;;;;18.64;86.27;96444.00;4992941;28;20436;-60
2021/09/13 06:25:28;;;;;;;6.30;5.70;;;;;;;18.66;86.24;96445.31;4977082;28;20226;-64
2021/09/13 06:27:54;;;;;;;5.00;4.60;;;;;;;18.69;86.79;96443.97;4976117;28;20173;-64
2021/09/13 06:30:19;;;;;;;7.90;5.60;;;;;;;18.70;86.66;96451.69;4977256;28;20453;-60
2021/09/13 06:32:44;;;;;;;8.47;5.83;;;;;;;18.71;86.84;96452.50;4975957;28;20178;-60
2021/09/13 06:35:10;;;;;;;6.53;5.90;;;;;;;18.73;87.42;96450.34;4977143;28;20228;-60
2021/09/13 06:37:35;;;;;;;15.50;7.40;;;;;;;18.76;87.48;96449.78;4977285;28;20185;-59
2021/09/13 06:40:01;;;;;;;8.23;6.63;;;;;;;18.81;87.42;96447.09;4976933;28;20185;-64
2021/09/13 06:42:30;;;;;;;7.83;6.67;;;;;;;18.85;87.77;96448.94;4976986;28;20174;-59
2021/09/13 06:44:56;;;;;;;9.27;7.00;;;;;;;18.90;87.77;96442.78;4976729;28;20186;-64
2021/09/13 06:49:56;;;;;;;5.73;5.23;;;;;;;18.98;86.63;96459.00;4977028;28;20884;-65
2021/09/13 06:52:22;;;;;;;5.67;5.00;;;;;;;19.00;86.89;96450.72;4977001;28;20409;-60
2021/09/13 06:54:47;;;;;;;4.90;4.50;;;;;;;19.02;87.27;96460.00;4976412;28;20194;-65
2021/09/13 06:57:12;;;;;;;5.73;5.20;;;;;;;19.10;86.91;96458.63;4976432;28;20197;-64
2021/09/13 06:59:38;;;;;;;5.50;5.07;;;;;;;19.17;87.13;96459.94;4976813;28;20188;-59
2021/09/13 07:02:06;;;;;;;4.83;4.33;;;;;;;19.19;87.09;96460.44;4976970;28;20206;-65
2021/09/13 07:04:32;;;;;;;4.77;4.23;;;;;;;19.20;87.16;96464.69;4976431;28;20433;-65
2021/09/13 07:06:57;;;;;;;4.33;3.93;;;;;;;19.26;86.85;96462.78;4977163;28;20484;-65
2021/09/13 07:09:23;;;;;;;4.47;4.07;;;;;;;19.33;86.80;96466.75;4976958;28;20176;-60
2021/09/13 07:11:48;;;;;;;5.20;4.70;;;;;;;19.38;86.39;96458.75;4976721;28;20673;-64
2021/09/13 07:14:14;;;;;;;4.80;4.40;;;;;;;19.43;86.44;96461.38;4975910;28;20229;-63
2021/09/13 07:16:40;;;;;;;4.70;4.40;;;;;;;19.46;86.46;96460.00;4976363;28;20728;-63
2021/09/13 07:19:05;;;;;;;4.43;4.13;;;;;;;19.53;86.25;96460.47;4976652;28;20500;-58
2021/09/13 07:21:32;;;;;;;4.90;4.47;;;;;;;19.57;86.50;96461.50;4994453;28;20185;-64
2021/09/13 07:23:58;;;;;;;5.13;4.63;;;;;;;19.62;86.51;96461.47;4978616;28;20209;-64
2021/09/13 07:26:23;;;;;;;5.43;4.30;;;;;;;19.69;86.74;96464.63;4976225;28;20469;-64
2021/09/13 07:28:48;;;;;;;5.30;4.60;;;;;;;19.74;86.52;96471.78;4976094;28;20232;-57
2021/09/13 07:31:14;;;;;;;5.27;4.87;;;;;;;19.78;86.85;96467.47;4976168;28;20248;-57
2021/09/13 07:33:39;;;;;;;5.13;4.50;;;;;;;19.84;86.76;96467.13;4974677;28;20532;-58
2021/09/13 07:36:05;;;;;;;5.40;5.00;;;;;;;19.91;86.50;96472.94;4976533;28;20662;-61
2021/09/13 07:38:30;;;;;;;5.30;4.80;;;;;;;19.90;85.48;96476.69;4976145;28;20585;-58
2021/09/13 07:40:55;;;;;;;5.60;4.73;;;;;;;19.95;85.19;96473.16;4976205;28;20579;-57
2021/09/13 07:43:21;;;;;;;5.37;4.87;;;;;;;19.98;85.45;96484.09;4975599;28;20302;-57
2021/09/13 07:45:47;;;;;;;5.00;4.60;;;;;;;20.03;85.44;96481.38;4974640;28;20197;-59
2021/09/13 07:48:12;;;;;;;5.50;4.60;;;;;;;20.07;85.25;96482.41;4976208;28;20237;-62
2021/09/13 07:50:38;;;;;;;4.20;3.90;;;;;;;20.11;85.33;96490.63;4975544;28;20225;-57
2021/09/13 07:53:04;;;;;;;4.70;4.33;;;;;;;20.15;85.35;96484.44;4975081;28;20174;-58
2021/09/13 07:55:29;;;;;;;4.97;4.57;;;;;;;20.23;85.25;96486.53;4975806;28;20186;-60
2021/09/13 07:57:54;;;;;;;5.00;4.60;;;;;;;20.26;85.17;96488.63;4975577;28;20538;-57
2021/09/13 08:00:20;;;;;;;5.23;4.83;;;;;;;20.19;84.16;96490.03;4975677;28;20621;-59
2021/09/13 08:02:46;;;;;;;4.10;3.70;;;;;;;20.32;82.73;96490.16;4975391;28;20253;-56
2021/09/13 08:05:11;;;;;;;4.43;4.03;;;;;;;20.38;83.01;96491.69;4974614;28;20433;-63
2021/09/13 08:07:37;;;;;;;5.10;4.00;;;;;;;20.43;83.20;96491.66;4975199;28;20178;-67
2021/09/13 08:10:03;;;;;;;4.40;4.00;;;;;;;20.51;83.27;96494.78;4975400;28;20174;-63
2021/09/13 08:12:28;;;;;;;5.03;4.57;;;;;;;20.57;83.16;96496.28;4975371;28;20253;-66
2021/09/13 08:14:54;;;;;;;4.10;3.80;;;;;;;20.62;83.17;96496.25;4974888;28;20244;-66
2021/09/13 08:17:19;;;;;;;3.70;3.40;;;;;;;20.67;83.21;96502.31;4975228;28;20629;-64
2021/09/13 08:19:44;;;;;;;4.73;4.37;;;;;;;20.65;81.72;96501.00;4975213;28;20191;-64
2021/09/13 08:22:11;;;;;;;6.60;5.00;;;;;;;20.75;81.56;96503.53;4973102;28;20189;-63
2021/09/13 08:24:37;;;;;;;5.30;4.80;;;;;;;20.80;80.74;96506.16;4971244;28;20252;-64
2021/09/13 08:27:03;;;;;;;4.73;4.33;;;;;;;20.89;80.62;96505.22;4971586;28;20426;-64
2021/09/13 08:29:29;;;;;;;5.83;5.33;;;;;;;20.97;78.79;96509.94;4971565;28;20422;-63
2021/09/13 08:31:56;;;;;;;4.33;3.90;;;;;;;21.03;78.87;96508.84;4971655;28;20202;-63
2021/09/13 08:34:21;;;;;;;4.90;4.13;;;;;;;21.09;79.25;96510.34;4970405;28;20265;-64
2021/09/13 08:36:47;;;;;;;4.13;3.73;;;;;;;21.16;79.43;96504.66;4971476;28;20524;-64
2021/09/13 08:39:14;;;;;;;3.70;3.50;;;;;;;21.21;79.13;96512.59;4971549;28;20256;-65
2021/09/13 08:41:40;;;;;;;4.80;4.40;;;;;;;21.06;77.11;96504.78;4971476;28;20469;-65
2021/09/13 08:44:07;;;;;;;4.97;4.40;;;;;;;21.18;79.34;96503.25;4971084;28;20417;-64
2021/09/13 08:46:39;;;;;;;5.70;5.00;;;;;;;21.32;77.77;96508.69;4970775;28;20197;-63
2021/09/13 08:49:08;;;;;;;5.13;4.63;;;;;;;21.40;77.97;96513.38;4971000;28;20429;-63
2021/09/13 08:51:33;;;;;;;4.80;4.40;;;;;;;21.48;78.03;96520.75;4971238;28;20461;-62
2021/09/13 08:54:04;;;;;;;5.80;5.23;;;;;;;21.47;77.10;96519.16;4971000;28;20424;-64
2021/09/13 08:56:37;;;;;;;4.93;4.53;;;;;;;21.47;73.55;96516.47;4971319;28;20190;-64
2021/09/13 08:59:03;;;;;;;4.40;4.10;;;;;;;21.59;74.44;96519.50;4970432;28;20433;-63
2021/09/13 09:01:30;;;;;;;5.30;4.80;;;;;;;21.57;74.40;96516.34;4971357;28;20413;-64
2021/09/13 09:03:57;;;;;;;4.50;4.07;;;;;;;21.76;74.71;96519.75;4970725;28;20457;-65
2021/09/13 09:06:29;;;;;;;4.50;4.03;;;;;;;21.87;76.07;96513.19;4971111;28;20460;-63
2021/09/13 09:09:04;;;;;;;4.90;4.40;;;;;;;21.97;76.45;96521.06;4971276;28;20421;-64
2021/09/13 09:11:54;;;;;;;4.80;4.40;;;;;;;22.11;76.42;96527.25;4970322;28;20531;-65
2021/09/13 09:14:32;;;;;;;4.00;3.70;;;;;;;22.08;76.27;96521.69;4970757;28;20416;-62
2021/09/13 09:17:10;;;;;;;5.30;4.90;;;;;;;22.13;73.01;96514.34;4969958;28;21311;-63
2021/09/13 09:19:37;;;;;;;4.53;4.13;;;;;;;22.31;74.37;96521.53;4972101;28;20438;-64
2021/09/13 09:22:21;;;;;;;5.10;4.60;;;;;;;22.42;75.47;96511.41;4983378;28;20418;-63
2021/09/13 09:24:48;;;;;;;4.30;4.00;;;;;;;22.53;76.21;96515.50;4970744;28;20487;-61
2021/09/13 09:27:13;;;;;;;5.23;4.37;;;;;;;22.55;75.93;96513.34;4971029;28;20425;-61
2021/09/13 09:29:39;;;;;;;6.93;4.20;;;;;;;22.62;75.95;96505.69;4971025;28;20414;-64
2021/09/13 09:32:05;;;;;;;4.67;4.27;;;;;;;22.69;75.31;96500.72;4970918;28;20209;-65
2021/09/13 09:34:36;;;;;;;6.40;5.80;;;;;;;22.52;72.22;96502.41;4969832;28;20170;-63
2021/09/13 09:37:11;;;;;;;5.63;5.10;;;;;;;22.75;72.57;96496.88;4971077;28;20509;-62
2021/09/13 09:39:48;;;;;;;4.73;4.33;;;;;;;22.83;73.21;96500.72;4971023;28;20405;-60
2021/09/13 09:42:14;;;;;;;5.50;5.00;;;;;;;22.95;73.48;96504.47;4970688;28;20425;-62
2021/09/13 09:44:45;;;;;;;5.10;4.60;;;;;;;23.10;73.92;96504.13;4970429;28;20437;-61
2021/09/13 09:47:12;;;;;;;5.00;4.60;;;;;;;23.20;74.52;96505.81;4970290;28;20476;-61
2021/09/13 09:49:43;;;;;;;6.03;4.27;;;;;;;23.27;74.88;96504.31;4974349;28;20416;-62
2021/09/13 09:52:09;;;;;;;6.27;5.67;;;;;;;23.35;72.80;96506.28;4973043;28;20813;-61
2021/09/13 09:54:35;;;;;;;6.40;5.90;;;;;;;23.42;71.61;96508.56;4973803;28;20429;-58
2021/09/13 09:57:08;;;;;;;6.47;5.33;;;;;;;23.49;72.72;96503.56;4973967;28;20509;-62
2021/09/13 09:59:38;;;;;;;5.67;5.20;;;;;;;23.49;70.85;96506.25;4974327;28;20570;-58
2021/09/13 10:02:19;;;;;;;4.60;4.20;;;;;;;23.63;71.79;96500.81;4974141;28;20445;-58
2021/09/13 10:04:52;;;;;;;5.00;4.63;;;;;;;23.69;72.08;96496.94;4973440;28;20442;-58
2021/09/13 10:07:18;;;;;;;5.87;5.37;;;;;;;23.75;70.85;96499.16;4974097;28;20517;-58
2021/09/13 10:09:44;;;;;;;4.93;4.50;;;;;;;23.87;71.06;96507.47;4974193;28;20445;-58
2021/09/13 10:12:10;;;;;;;5.27;4.73;;;;;;;23.84;70.91;96497.38;4972774;28;20492;-62
2021/09/13 10:14:37;;;;;;;4.63;4.23;;;;;;;23.97;71.47;96496.47;4973601;28;20194;-58
2021/09/13 10:17:04;;;;;;;6.33;5.73;;;;;;;24.13;72.15;96495.00;4973966;28;20456;-58
2021/09/13 10:19:30;;;;;;;4.73;4.43;;;;;;;24.24;71.97;96492.88;4975809;28;20492;-61
2021/09/13 10:21:56;;;;;;;5.77;5.20;;;;;;;24.30;70.21;96492.44;4993552;28;20935;-59
2021/09/13 10:24:27;;;;;;;6.27;5.67;;;;;;;24.39;70.59;96490.56;4992906;28;20178;-61
2021/09/13 10:27:06;;;;;;;4.70;4.20;;;;;;;24.53;69.32;96481.63;4984837;28;20170;-58
2021/09/13 10:29:32;;;;;;;5.50;5.10;;;;;;;24.70;69.15;96485.16;4976506;28;20417;-62
2021/09/13 10:32:01;;;;;;;5.00;4.60;;;;;;;24.79;69.76;96482.50;4977392;28;20999;-58
2021/09/13 10:34:32;;;;;;;5.17;4.77;;;;;;;24.80;68.53;96478.72;4976644;28;20680;-59
2021/09/13 10:37:10;;;;;;;5.07;4.60;;;;;;;24.93;67.98;96478.56;4977167;28;20913;-59
2021/09/13 10:40:02;;;;;;;7.57;6.97;;;;;;;24.79;64.83;96477.91;4976852;28;20767;-61
2021/09/13 10:42:45;;;;;;;5.83;4.97;;;;;;;24.96;65.95;96471.78;4977526;28;20408;-62
2021/09/13 10:45:17;;;;;;;4.70;4.30;;;;;;;25.03;66.12;96469.41;4976942;28;20944;-61
2021/09/13 10:48:01;;;;;;;5.43;4.93;;;;;;;25.16;66.04;96471.19;4976786;28;20425;-61
2021/09/13 10:50:34;;;;;;;5.33;4.73;;;;;;;25.29;64.96;96465.63;4977234;28;20789;-62
2021/09/13 10:53:01;;;;;;;4.97;4.57;;;;;;;25.43;65.28;96469.00;4976669;28;20417;-59
2021/09/13 10:55:30;;;;;;;5.60;5.20;;;;;;;25.52;65.47;96458.22;4976054;28;20488;-62
2021/09/13 10:58:12;;;;;;;4.60;4.20;;;;;;;25.61;64.47;96453.63;4976731;28;20769;-62
2021/09/13 11:00:37;;;;;;;5.03;4.53;;;;;;;25.60;63.39;96460.09;4973395;28;20409;-62
2021/09/13 11:03:30;;;;;;;4.50;4.20;;;;;;;25.58;63.22;96451.59;4973089;28;20476;-60
2021/09/13 11:06:08;;;;;;;4.30;4.00;;;;;;;25.68;64.00;96453.13;4953347;29;20720;-60
2021/09/13 11:08:50;;;;;;;4.40;4.10;;;;;;;25.70;64.77;96449.03;4954566;28;20775;-62
2021/09/13 11:11:18;;;;;;;4.27;3.97;;;;;;;25.75;64.87;96454.22;4953575;28;20544;-62
2021/09/13 11:13:45;;;;;;;5.93;4.77;;;;;;;25.75;63.76;96450.75;4967560;28;20425;-61
2021/09/13 11:16:16;;;;;;;4.87;4.47;;;;;;;25.71;64.12;96445.22;4973088;28;20933;-60
2021/09/13 11:18:43;;;;;;;4.53;4.13;;;;;;;25.73;63.89;96445.69;4973173;28;20932;-62
2021/09/13 11:21:21;;;;;;;5.27;4.90;;;;;;;25.80;64.15;96440.59;4988187;28;20435;-60
2021/09/13 11:23:47;;;;;;;4.50;4.20;;;;;;;25.93;63.10;96430.75;4991684;28;20413;-60
2021/09/13 11:26:18;;;;;;;4.60;4.20;;;;;;;25.81;62.08;96441.41;4992452;28;20451;-62
2021/09/13 11:29:03;;;;;;;5.00;4.43;;;;;;;25.82;59.15;96434.91;4974547;28;20428;-60
2021/09/13 11:31:34;;;;;;;4.50;4.10;;;;;;;25.94;62.97;96432.34;4972803;28;20877;-61
2021/09/13 11:34:02;;;;;;;4.10;3.80;;;;;;;25.99;62.39;96434.84;4972627;28;20484;-62
2021/09/13 11:36:29;;;;;;;5.93;5.43;;;;;;;26.07;61.41;96440.22;4972186;28;20436;-62